sensor_id;sensor_type;location;lat;lon;timestamp;temperature;humidity
65231;DHT22;51813;40.666;16.602;2024-01-16T00:01:42;16.00;56.50
65231;DHT22;51813;40.666;16.602;2024-01-16T00:04:08;15.90;56.40
65231;DHT22;51813;40.666;16.602;2024-01-16T00:06:38;15.90;56.40
65231;DHT22;51813;40.666;16.602;2024-01-16T00:09:03;15.90;56.40
65231;DHT22;51813;40.666;16.602;2024-01-16T00:11:30;16.00;56.60
65231;DHT22;51813;40.666;16.602;2024-01-16T00:13:56;15.90;56.50
65231;DHT22;51813;40.666;16.602;2024-01-16T00:16:22;16.00;56.60
65231;DHT22;51813;40.666;16.602;2024-01-16T00:18:47;15.90;56.50
65231;DHT22;51813;40.666;16.602;2024-01-16T00:21:13;15.90;56.60
65231;DHT22;51813;40.666;16.602;2024-01-16T00:23:38;15.90;56.70
65231;DHT22;51813;40.666;16.602;2024-01-16T00:26:04;15.90;56.80
65231;DHT22;51813;40.666;16.602;2024-01-16T00:28:31;15.90;56.80
65231;DHT22;51813;40.666;16.602;2024-01-16T00:30:57;15.90;56.80
65231;DHT22;51813;40.666;16.602;2024-01-16T00:33:23;15.90;56.70
65231;DHT22;51813;40.666;16.602;2024-01-16T00:35:49;15.90;56.80
65231;DHT22;51813;40.666;16.602;2024-01-16T00:38:15;15.90;56.70
65231;DHT22;51813;40.666;16.602;2024-01-16T00:40:40;15.90;56.70
65231;DHT22;51813;40.666;16.602;2024-01-16T00:43:06;15.80;56.80
65231;DHT22;51813;40.666;16.602;2024-01-16T00:45:32;15.90;56.90
65231;DHT22;51813;40.666;16.602;2024-01-16T00:47:57;15.90;56.90
65231;DHT22;51813;40.666;16.602;2024-01-16T00:50:23;15.90;56.80
65231;DHT22;51813;40.666;16.602;2024-01-16T00:52:50;15.90;56.80
65231;DHT22;51813;40.666;16.602;2024-01-16T00:55:15;15.90;56.70
65231;DHT22;51813;40.666;16.602;2024-01-16T00:57:41;15.90;56.90
65231;DHT22;51813;40.666;16.602;2024-01-16T01:00:07;15.90;56.90
65231;DHT22;51813;40.666;16.602;2024-01-16T01:02:35;15.90;56.80
65231;DHT22;51813;40.666;16.602;2024-01-16T01:05:01;15.90;57.00
65231;DHT22;51813;40.666;16.602;2024-01-16T01:07:26;15.70;57.60
65231;DHT22;51813;40.666;16.602;2024-01-16T01:09:52;15.70;57.50
65231;DHT22;51813;40.666;16.602;2024-01-16T01:12:18;15.80;57.40
65231;DHT22;51813;40.666;16.602;2024-01-16T01:14:44;15.80;57.30
65231;DHT22;51813;40.666;16.602;2024-01-16T01:17:10;15.90;57.10
65231;DHT22;51813;40.666;16.602;2024-01-16T01:19:36;15.90;57.10
65231;DHT22;51813;40.666;16.602;2024-01-16T01:22:01;15.90;57.10
65231;DHT22;51813;40.666;16.602;2024-01-16T01:24:27;15.90;57.10
65231;DHT22;51813;40.666;16.602;2024-01-16T01:26:53;15.90;57.00
65231;DHT22;51813;40.666;16.602;2024-01-16T01:29:18;15.90;57.00
65231;DHT22;51813;40.666;16.602;2024-01-16T01:31:47;15.90;57.20
65231;DHT22;51813;40.666;16.602;2024-01-16T01:34:13;15.90;57.00
65231;DHT22;51813;40.666;16.602;2024-01-16T01:36:39;15.90;57.10
65231;DHT22;51813;40.666;16.602;2024-01-16T01:39:04;15.90;57.10
65231;DHT22;51813;40.666;16.602;2024-01-16T01:41:31;15.90;57.00
65231;DHT22;51813;40.666;16.602;2024-01-16T01:43:56;15.90;57.00
65231;DHT22;51813;40.666;16.602;2024-01-16T01:46:22;15.90;57.00
65231;DHT22;51813;40.666;16.602;2024-01-16T01:48:48;15.90;57.00
65231;DHT22;51813;40.666;16.602;2024-01-16T01:51:17;15.90;57.00
65231;DHT22;51813;40.666;16.602;2024-01-16T01:53:44;15.90;57.00
65231;DHT22;51813;40.666;16.602;2024-01-16T01:56:13;15.90;57.10
65231;DHT22;51813;40.666;16.602;2024-01-16T01:58:43;15.90;57.10
65231;DHT22;51813;40.666;16.602;2024-01-16T02:01:09;15.90;56.90
65231;DHT22;51813;40.666;16.602;2024-01-16T02:03:40;15.90;56.90
65231;DHT22;51813;40.666;16.602;2024-01-16T02:06:07;15.90;57.00
65231;DHT22;51813;40.666;16.602;2024-01-16T02:08:33;15.90;57.00
65231;DHT22;51813;40.666;16.602;2024-01-16T02:10:58;15.90;57.00
65231;DHT22;51813;40.666;16.602;2024-01-16T02:13:24;15.90;57.00
65231;DHT22;51813;40.666;16.602;2024-01-16T02:15:50;15.90;56.90
65231;DHT22;51813;40.666;16.602;2024-01-16T02:18:17;15.90;57.70
65231;DHT22;51813;40.666;16.602;2024-01-16T02:20:43;15.90;57.00
65231;DHT22;51813;40.666;16.602;2024-01-16T02:23:10;15.90;56.90
65231;DHT22;51813;40.666;16.602;2024-01-16T02:25:40;15.90;57.00
65231;DHT22;51813;40.666;16.602;2024-01-16T02:28:06;15.90;57.00
65231;DHT22;51813;40.666;16.602;2024-01-16T02:30:33;15.70;56.90
65231;DHT22;51813;40.666;16.602;2024-01-16T02:32:59;15.70;57.20
65231;DHT22;51813;40.666;16.602;2024-01-16T02:35:26;15.70;57.30
65231;DHT22;51813;40.666;16.602;2024-01-16T02:37:52;15.60;57.40
65231;DHT22;51813;40.666;16.602;2024-01-16T02:40:18;15.60;57.40
65231;DHT22;51813;40.666;16.602;2024-01-16T02:42:43;15.70;57.60
65231;DHT22;51813;40.666;16.602;2024-01-16T02:45:09;15.60;57.90
65231;DHT22;51813;40.666;16.602;2024-01-16T02:47:35;15.60;57.70
65231;DHT22;51813;40.666;16.602;2024-01-16T02:50:00;15.50;58.10
65231;DHT22;51813;40.666;16.602;2024-01-16T02:52:26;15.50;58.00
65231;DHT22;51813;40.666;16.602;2024-01-16T02:54:52;15.40;58.10
65231;DHT22;51813;40.666;16.602;2024-01-16T02:57:18;15.30;58.50
65231;DHT22;51813;40.666;16.602;2024-01-16T02:59:44;15.10;58.90
65231;DHT22;51813;40.666;16.602;2024-01-16T03:02:09;15.10;59.20
65231;DHT22;51813;40.666;16.602;2024-01-16T03:04:36;15.20;59.30
65231;DHT22;51813;40.666;16.602;2024-01-16T03:07:02;15.40;58.60
65231;DHT22;51813;40.666;16.602;2024-01-16T03:09:28;15.30;58.70
65231;DHT22;51813;40.666;16.602;2024-01-16T03:11:54;15.40;58.50
65231;DHT22;51813;40.666;16.602;2024-01-16T03:14:20;15.40;58.50
65231;DHT22;51813;40.666;16.602;2024-01-16T03:16:45;15.50;58.50
65231;DHT22;51813;40.666;16.602;2024-01-16T03:19:12;15.60;58.10
65231;DHT22;51813;40.666;16.602;2024-01-16T03:21:38;15.50;58.00
65231;DHT22;51813;40.666;16.602;2024-01-16T03:24:05;15.40;58.50
65231;DHT22;51813;40.666;16.602;2024-01-16T03:26:31;15.20;59.00
65231;DHT22;51813;40.666;16.602;2024-01-16T03:28:58;15.20;59.20
65231;DHT22;51813;40.666;16.602;2024-01-16T03:31:23;15.40;58.80
65231;DHT22;51813;40.666;16.602;2024-01-16T03:33:49;15.50;58.50
65231;DHT22;51813;40.666;16.602;2024-01-16T03:36:15;15.60;58.10
65231;DHT22;51813;40.666;16.602;2024-01-16T03:38:44;15.50;58.00
65231;DHT22;51813;40.666;16.602;2024-01-16T03:41:13;15.50;58.30
65231;DHT22;51813;40.666;16.602;2024-01-16T03:43:40;15.60;58.30
65231;DHT22;51813;40.666;16.602;2024-01-16T03:46:06;15.70;58.00
65231;DHT22;51813;40.666;16.602;2024-01-16T03:48:32;15.70;57.80
65231;DHT22;51813;40.666;16.602;2024-01-16T03:50:57;15.70;57.70
65231;DHT22;51813;40.666;16.602;2024-01-16T03:53:24;15.80;57.70
65231;DHT22;51813;40.666;16.602;2024-01-16T03:55:50;15.80;57.60
65231;DHT22;51813;40.666;16.602;2024-01-16T03:58:16;15.80;57.60
65231;DHT22;51813;40.666;16.602;2024-01-16T04:00:42;15.80;57.60
65231;DHT22;51813;40.666;16.602;2024-01-16T04:03:08;15.80;57.60
65231;DHT22;51813;40.666;16.602;2024-01-16T04:05:34;15.80;57.60
65231;DHT22;51813;40.666;16.602;2024-01-16T04:08:00;15.80;57.60
65231;DHT22;51813;40.666;16.602;2024-01-16T04:10:26;15.80;57.50
65231;DHT22;51813;40.666;16.602;2024-01-16T04:12:52;15.90;57.50
65231;DHT22;51813;40.666;16.602;2024-01-16T04:15:17;15.80;57.40
65231;DHT22;51813;40.666;16.602;2024-01-16T04:17:43;15.80;57.40
65231;DHT22;51813;40.666;16.602;2024-01-16T04:20:09;15.90;57.50
65231;DHT22;51813;40.666;16.602;2024-01-16T04:22:35;15.80;57.40
65231;DHT22;51813;40.666;16.602;2024-01-16T04:25:01;15.80;57.50
65231;DHT22;51813;40.666;16.602;2024-01-16T04:27:30;15.60;57.60
65231;DHT22;51813;40.666;16.602;2024-01-16T04:29:56;15.70;58.00
65231;DHT22;51813;40.666;16.602;2024-01-16T04:32:22;15.70;57.80
65231;DHT22;51813;40.666;16.602;2024-01-16T04:34:47;15.80;58.40
65231;DHT22;51813;40.666;16.602;2024-01-16T04:37:13;15.80;57.80
65231;DHT22;51813;40.666;16.602;2024-01-16T04:39:38;15.70;57.90
65231;DHT22;51813;40.666;16.602;2024-01-16T04:42:06;15.80;57.80
65231;DHT22;51813;40.666;16.602;2024-01-16T04:44:31;15.80;57.70
65231;DHT22;51813;40.666;16.602;2024-01-16T04:46:57;15.80;57.60
65231;DHT22;51813;40.666;16.602;2024-01-16T04:49:23;15.80;57.60
65231;DHT22;51813;40.666;16.602;2024-01-16T04:51:49;15.80;57.60
65231;DHT22;51813;40.666;16.602;2024-01-16T04:54:15;15.80;57.40
65231;DHT22;51813;40.666;16.602;2024-01-16T04:56:40;15.80;57.50
65231;DHT22;51813;40.666;16.602;2024-01-16T04:59:06;15.80;57.50
65231;DHT22;51813;40.666;16.602;2024-01-16T05:01:31;15.80;57.50
65231;DHT22;51813;40.666;16.602;2024-01-16T05:03:57;15.80;57.50
65231;DHT22;51813;40.666;16.602;2024-01-16T05:06:23;15.80;57.40
65231;DHT22;51813;40.666;16.602;2024-01-16T05:08:48;15.80;57.50
65231;DHT22;51813;40.666;16.602;2024-01-16T05:11:14;15.90;57.50
65231;DHT22;51813;40.666;16.602;2024-01-16T05:13:41;15.90;57.50
65231;DHT22;51813;40.666;16.602;2024-01-16T05:16:06;15.80;57.40
65231;DHT22;51813;40.666;16.602;2024-01-16T05:18:32;15.50;57.60
65231;DHT22;51813;40.666;16.602;2024-01-16T05:21:00;15.50;58.30
65231;DHT22;51813;40.666;16.602;2024-01-16T05:23:27;15.60;58.20
65231;DHT22;51813;40.666;16.602;2024-01-16T05:25:53;15.70;58.00
65231;DHT22;51813;40.666;16.602;2024-01-16T05:28:19;15.70;57.80
65231;DHT22;51813;40.666;16.602;2024-01-16T05:30:45;15.80;57.60
65231;DHT22;51813;40.666;16.602;2024-01-16T05:33:10;15.80;57.60
65231;DHT22;51813;40.666;16.602;2024-01-16T05:35:36;15.80;57.60
65231;DHT22;51813;40.666;16.602;2024-01-16T05:38:03;15.80;57.40
65231;DHT22;51813;40.666;16.602;2024-01-16T05:40:29;15.80;57.50
65231;DHT22;51813;40.666;16.602;2024-01-16T05:42:55;15.80;57.50
65231;DHT22;51813;40.666;16.602;2024-01-16T05:45:21;15.80;57.40
65231;DHT22;51813;40.666;16.602;2024-01-16T05:47:47;15.80;57.70
65231;DHT22;51813;40.666;16.602;2024-01-16T05:50:13;15.80;57.70
65231;DHT22;51813;40.666;16.602;2024-01-16T05:52:38;15.80;57.60
65231;DHT22;51813;40.666;16.602;2024-01-16T05:55:06;15.80;57.50
65231;DHT22;51813;40.666;16.602;2024-01-16T05:57:33;15.80;57.50
65231;DHT22;51813;40.666;16.602;2024-01-16T05:59:59;15.80;57.50
65231;DHT22;51813;40.666;16.602;2024-01-16T06:02:27;15.80;57.40
65231;DHT22;51813;40.666;16.602;2024-01-16T06:04:53;15.80;57.40
65231;DHT22;51813;40.666;16.602;2024-01-16T06:07:19;15.80;57.40
65231;DHT22;51813;40.666;16.602;2024-01-16T06:09:44;15.80;57.30
65231;DHT22;51813;40.666;16.602;2024-01-16T06:12:10;15.80;58.00
65231;DHT22;51813;40.666;16.602;2024-01-16T06:14:37;15.80;57.40
65231;DHT22;51813;40.666;16.602;2024-01-16T06:17:03;15.80;57.60
65231;DHT22;51813;40.666;16.602;2024-01-16T06:19:31;15.80;57.60
65231;DHT22;51813;40.666;16.602;2024-01-16T06:21:57;15.80;57.50
65231;DHT22;51813;40.666;16.602;2024-01-16T06:24:22;15.80;57.30
65231;DHT22;51813;40.666;16.602;2024-01-16T06:26:48;15.80;57.40
65231;DHT22;51813;40.666;16.602;2024-01-16T06:29:14;15.80;57.30
65231;DHT22;51813;40.666;16.602;2024-01-16T06:31:41;15.80;57.20
65231;DHT22;51813;40.666;16.602;2024-01-16T06:34:06;15.80;57.30
65231;DHT22;51813;40.666;16.602;2024-01-16T06:36:34;15.80;57.20
65231;DHT22;51813;40.666;16.602;2024-01-16T06:39:00;15.80;57.10
65231;DHT22;51813;40.666;16.602;2024-01-16T06:41:25;15.80;57.10
65231;DHT22;51813;40.666;16.602;2024-01-16T06:43:51;15.80;57.10
65231;DHT22;51813;40.666;16.602;2024-01-16T06:46:17;15.80;57.10
65231;DHT22;51813;40.666;16.602;2024-01-16T06:48:42;15.80;57.20
65231;DHT22;51813;40.666;16.602;2024-01-16T06:51:08;15.80;57.20
65231;DHT22;51813;40.666;16.602;2024-01-16T06:53:36;15.80;57.20
65231;DHT22;51813;40.666;16.602;2024-01-16T06:56:01;15.80;57.30
65231;DHT22;51813;40.666;16.602;2024-01-16T06:58:28;15.80;57.30
65231;DHT22;51813;40.666;16.602;2024-01-16T07:00:54;15.80;57.40
65231;DHT22;51813;40.666;16.602;2024-01-16T07:03:21;15.80;57.40
65231;DHT22;51813;40.666;16.602;2024-01-16T07:05:46;15.80;57.20
65231;DHT22;51813;40.666;16.602;2024-01-16T07:08:12;15.80;57.20
65231;DHT22;51813;40.666;16.602;2024-01-16T07:10:38;15.80;57.30
65231;DHT22;51813;40.666;16.602;2024-01-16T07:13:04;15.80;57.30
65231;DHT22;51813;40.666;16.602;2024-01-16T07:15:29;15.80;57.30
65231;DHT22;51813;40.666;16.602;2024-01-16T07:17:55;15.80;57.30
65231;DHT22;51813;40.666;16.602;2024-01-16T07:20:20;15.80;57.20
65231;DHT22;51813;40.666;16.602;2024-01-16T07:22:47;15.80;57.20
65231;DHT22;51813;40.666;16.602;2024-01-16T07:25:12;15.70;57.00
65231;DHT22;51813;40.666;16.602;2024-01-16T07:27:38;15.70;57.60
65231;DHT22;51813;40.666;16.602;2024-01-16T07:30:04;15.70;57.60
65231;DHT22;51813;40.666;16.602;2024-01-16T07:32:31;15.70;57.50
65231;DHT22;51813;40.666;16.602;2024-01-16T07:34:57;15.70;57.50
65231;DHT22;51813;40.666;16.602;2024-01-16T07:37:23;15.70;57.70
65231;DHT22;51813;40.666;16.602;2024-01-16T07:39:49;15.70;57.60
65231;DHT22;51813;40.666;16.602;2024-01-16T07:42:14;15.50;57.90
65231;DHT22;51813;40.666;16.602;2024-01-16T07:44:40;15.40;58.50
65231;DHT22;51813;40.666;16.602;2024-01-16T07:47:06;15.50;58.80
65231;DHT22;51813;40.666;16.602;2024-01-16T07:49:31;15.60;59.00
65231;DHT22;51813;40.666;16.602;2024-01-16T07:51:57;15.70;58.80
65231;DHT22;51813;40.666;16.602;2024-01-16T07:54:23;15.70;58.60
65231;DHT22;51813;40.666;16.602;2024-01-16T07:56:49;15.70;58.50
65231;DHT22;51813;40.666;16.602;2024-01-16T07:59:15;15.70;58.50
65231;DHT22;51813;40.666;16.602;2024-01-16T08:01:40;15.70;58.30
65231;DHT22;51813;40.666;16.602;2024-01-16T08:04:06;15.70;58.70
65231;DHT22;51813;40.666;16.602;2024-01-16T08:06:32;15.70;58.50
65231;DHT22;51813;40.666;16.602;2024-01-16T08:08:58;15.70;58.80
65231;DHT22;51813;40.666;16.602;2024-01-16T08:11:24;15.70;58.90
65231;DHT22;51813;40.666;16.602;2024-01-16T08:13:50;15.70;58.80
65231;DHT22;51813;40.666;16.602;2024-01-16T08:16:15;15.80;58.90
65231;DHT22;51813;40.666;16.602;2024-01-16T08:18:41;15.80;58.60
65231;DHT22;51813;40.666;16.602;2024-01-16T08:21:06;15.80;58.80
65231;DHT22;51813;40.666;16.602;2024-01-16T08:23:33;15.70;58.60
65231;DHT22;51813;40.666;16.602;2024-01-16T08:25:59;15.70;58.80
65231;DHT22;51813;40.666;16.602;2024-01-16T08:28:26;15.70;59.00
65231;DHT22;51813;40.666;16.602;2024-01-16T08:30:52;15.70;59.00
65231;DHT22;51813;40.666;16.602;2024-01-16T08:33:18;15.80;59.10
65231;DHT22;51813;40.666;16.602;2024-01-16T08:35:43;15.80;58.90
65231;DHT22;51813;40.666;16.602;2024-01-16T08:38:09;15.80;58.80
65231;DHT22;51813;40.666;16.602;2024-01-16T08:40:35;15.80;59.10
65231;DHT22;51813;40.666;16.602;2024-01-16T08:43:01;15.80;59.10
65231;DHT22;51813;40.666;16.602;2024-01-16T08:45:26;15.80;59.10
65231;DHT22;51813;40.666;16.602;2024-01-16T08:47:52;15.80;59.10
65231;DHT22;51813;40.666;16.602;2024-01-16T08:50:18;15.90;59.20
65231;DHT22;51813;40.666;16.602;2024-01-16T08:52:44;15.90;59.20
65231;DHT22;51813;40.666;16.602;2024-01-16T08:55:10;15.90;59.20
65231;DHT22;51813;40.666;16.602;2024-01-16T08:57:38;15.90;59.30
65231;DHT22;51813;40.666;16.602;2024-01-16T09:00:07;15.90;59.20
65231;DHT22;51813;40.666;16.602;2024-01-16T09:02:35;15.90;59.30
65231;DHT22;51813;40.666;16.602;2024-01-16T09:05:00;15.90;59.30
65231;DHT22;51813;40.666;16.602;2024-01-16T09:07:26;16.00;59.40
65231;DHT22;51813;40.666;16.602;2024-01-16T09:09:52;15.90;59.20
65231;DHT22;51813;40.666;16.602;2024-01-16T09:12:18;15.90;59.20
65231;DHT22;51813;40.666;16.602;2024-01-16T09:14:44;15.90;59.20
65231;DHT22;51813;40.666;16.602;2024-01-16T09:17:09;15.90;58.90
65231;DHT22;51813;40.666;16.602;2024-01-16T09:19:35;15.90;58.70
65231;DHT22;51813;40.666;16.602;2024-01-16T09:22:01;15.90;58.70
65231;DHT22;51813;40.666;16.602;2024-01-16T09:24:28;15.90;58.80
65231;DHT22;51813;40.666;16.602;2024-01-16T09:26:54;15.90;58.70
65231;DHT22;51813;40.666;16.602;2024-01-16T09:29:20;15.90;58.70
65231;DHT22;51813;40.666;16.602;2024-01-16T09:31:47;15.90;58.60
65231;DHT22;51813;40.666;16.602;2024-01-16T09:34:13;16.00;59.20
65231;DHT22;51813;40.666;16.602;2024-01-16T09:36:39;16.00;59.00
65231;DHT22;51813;40.666;16.602;2024-01-16T09:39:06;16.10;59.30
65231;DHT22;51813;40.666;16.602;2024-01-16T09:41:39;16.10;59.20
65231;DHT22;51813;40.666;16.602;2024-01-16T09:44:05;16.10;59.30
65231;DHT22;51813;40.666;16.602;2024-01-16T09:46:31;16.10;58.70
65231;DHT22;51813;40.666;16.602;2024-01-16T09:48:57;16.10;59.20
65231;DHT22;51813;40.666;16.602;2024-01-16T09:51:24;16.10;59.10
65231;DHT22;51813;40.666;16.602;2024-01-16T09:53:50;16.10;59.30
65231;DHT22;51813;40.666;16.602;2024-01-16T09:56:20;16.20;58.80
65231;DHT22;51813;40.666;16.602;2024-01-16T09:58:49;16.30;58.30
65231;DHT22;51813;40.666;16.602;2024-01-16T10:01:15;16.50;57.30
65231;DHT22;51813;40.666;16.602;2024-01-16T10:03:44;16.70;57.20
65231;DHT22;51813;40.666;16.602;2024-01-16T10:06:12;16.80;56.60
65231;DHT22;51813;40.666;16.602;2024-01-16T10:08:39;16.90;56.00
65231;DHT22;51813;40.666;16.602;2024-01-16T10:11:05;17.10;55.40
65231;DHT22;51813;40.666;16.602;2024-01-16T10:13:32;17.20;54.70
65231;DHT22;51813;40.666;16.602;2024-01-16T10:15:59;17.30;54.30
65231;DHT22;51813;40.666;16.602;2024-01-16T10:18:26;17.40;53.70
65231;DHT22;51813;40.666;16.602;2024-01-16T10:20:52;17.50;53.70
65231;DHT22;51813;40.666;16.602;2024-01-16T10:23:29;17.60;53.40
65231;DHT22;51813;40.666;16.602;2024-01-16T10:26:11;17.70;53.10
65231;DHT22;51813;40.666;16.602;2024-01-16T10:28:38;17.80;52.80
65231;DHT22;51813;40.666;16.602;2024-01-16T10:31:07;18.00;52.40
65231;DHT22;51813;40.666;16.602;2024-01-16T10:33:33;18.00;51.90
65231;DHT22;51813;40.666;16.602;2024-01-16T10:36:15;18.00;51.50
65231;DHT22;51813;40.666;16.602;2024-01-16T10:38:43;18.00;51.60
65231;DHT22;51813;40.666;16.602;2024-01-16T10:41:14;18.00;51.50
65231;DHT22;51813;40.666;16.602;2024-01-16T10:43:40;18.10;51.30
65231;DHT22;51813;40.666;16.602;2024-01-16T10:46:16;18.10;51.30
65231;DHT22;51813;40.666;16.602;2024-01-16T10:48:59;18.10;51.10
65231;DHT22;51813;40.666;16.602;2024-01-16T10:51:26;18.10;50.70
65231;DHT22;51813;40.666;16.602;2024-01-16T10:53:57;18.10;50.70
65231;DHT22;51813;40.666;16.602;2024-01-16T10:56:24;18.10;50.40
65231;DHT22;51813;40.666;16.602;2024-01-16T11:01:44;18.10;50.50
65231;DHT22;51813;40.666;16.602;2024-01-16T11:04:12;18.10;50.30
65231;DHT22;51813;40.666;16.602;2024-01-16T11:06:40;18.10;50.40
65231;DHT22;51813;40.666;16.602;2024-01-16T11:09:07;18.10;50.40
65231;DHT22;51813;40.666;16.602;2024-01-16T11:11:33;18.10;50.40
65231;DHT22;51813;40.666;16.602;2024-01-16T11:14:02;18.10;50.70
65231;DHT22;51813;40.666;16.602;2024-01-16T11:16:31;18.10;50.80
65231;DHT22;51813;40.666;16.602;2024-01-16T11:18:57;18.10;51.10
65231;DHT22;51813;40.666;16.602;2024-01-16T11:21:24;18.10;51.00
65231;DHT22;51813;40.666;16.602;2024-01-16T11:23:50;18.10;50.80
65231;DHT22;51813;40.666;16.602;2024-01-16T11:26:26;18.20;51.00
65231;DHT22;51813;40.666;16.602;2024-01-16T11:28:58;18.10;50.70
65231;DHT22;51813;40.666;16.602;2024-01-16T11:31:35;18.10;50.40
65231;DHT22;51813;40.666;16.602;2024-01-16T11:34:02;18.10;50.50
65231;DHT22;51813;40.666;16.602;2024-01-16T11:36:57;18.10;50.40
65231;DHT22;51813;40.666;16.602;2024-01-16T11:39:24;18.10;50.50
65231;DHT22;51813;40.666;16.602;2024-01-16T11:41:56;18.10;50.50
65231;DHT22;51813;40.666;16.602;2024-01-16T11:44:49;18.10;50.40
65231;DHT22;51813;40.666;16.602;2024-01-16T11:47:20;18.10;50.50
65231;DHT22;51813;40.666;16.602;2024-01-16T11:50:09;18.10;50.80
65231;DHT22;51813;40.666;16.602;2024-01-16T11:55:26;18.10;50.30
65231;DHT22;51813;40.666;16.602;2024-01-16T12:00:45;18.20;50.60
65231;DHT22;51813;40.666;16.602;2024-01-16T12:03:19;18.20;50.50
65231;DHT22;51813;40.666;16.602;2024-01-16T12:05:58;18.20;50.40
65231;DHT22;51813;40.666;16.602;2024-01-16T12:08:24;18.20;50.10
65231;DHT22;51813;40.666;16.602;2024-01-16T12:10:50;18.20;50.50
65231;DHT22;51813;40.666;16.602;2024-01-16T12:13:16;18.20;50.40
65231;DHT22;51813;40.666;16.602;2024-01-16T12:15:43;18.20;50.70
65231;DHT22;51813;40.666;16.602;2024-01-16T12:18:09;18.30;50.60
65231;DHT22;51813;40.666;16.602;2024-01-16T12:20:36;18.30;50.40
65231;DHT22;51813;40.666;16.602;2024-01-16T12:23:06;18.30;50.10
65231;DHT22;51813;40.666;16.602;2024-01-16T12:25:34;18.40;49.70
65231;DHT22;51813;40.666;16.602;2024-01-16T12:28:01;18.30;49.90
65231;DHT22;51813;40.666;16.602;2024-01-16T12:30:29;18.30;49.90
65231;DHT22;51813;40.666;16.602;2024-01-16T12:33:11;18.30;49.80
65231;DHT22;51813;40.666;16.602;2024-01-16T12:35:42;18.30;49.90
65231;DHT22;51813;40.666;16.602;2024-01-16T12:38:09;18.30;49.70
65231;DHT22;51813;40.666;16.602;2024-01-16T12:40:40;18.30;49.80
65231;DHT22;51813;40.666;16.602;2024-01-16T12:43:08;18.30;49.40
65231;DHT22;51813;40.666;16.602;2024-01-16T12:45:37;18.30;49.50
65231;DHT22;51813;40.666;16.602;2024-01-16T12:48:04;18.30;49.70
65231;DHT22;51813;40.666;16.602;2024-01-16T12:50:31;18.30;49.50
65231;DHT22;51813;40.666;16.602;2024-01-16T12:53:09;18.20;49.80
65231;DHT22;51813;40.666;16.602;2024-01-16T12:55:39;18.10;49.40
65231;DHT22;51813;40.666;16.602;2024-01-16T12:58:18;17.90;50.40
65231;DHT22;51813;40.666;16.602;2024-01-16T13:00:49;18.10;50.40
65231;DHT22;51813;40.666;16.602;2024-01-16T13:03:18;18.30;50.00
65231;DHT22;51813;40.666;16.602;2024-01-16T13:05:45;18.50;49.60
65231;DHT22;51813;40.666;16.602;2024-01-16T13:08:18;18.50;49.30
65231;DHT22;51813;40.666;16.602;2024-01-16T13:10:46;18.60;50.20
65231;DHT22;51813;40.666;16.602;2024-01-16T13:13:21;18.60;49.50
65231;DHT22;51813;40.666;16.602;2024-01-16T13:15:47;18.40;50.50
65231;DHT22;51813;40.666;16.602;2024-01-16T13:18:24;18.70;49.70
65231;DHT22;51813;40.666;16.602;2024-01-16T13:20:53;18.60;48.80
65231;DHT22;51813;40.666;16.602;2024-01-16T13:23:19;18.40;49.60
65231;DHT22;51813;40.666;16.602;2024-01-16T13:25:47;18.70;49.70
65231;DHT22;51813;40.666;16.602;2024-01-16T13:28:14;18.70;49.80
65231;DHT22;51813;40.666;16.602;2024-01-16T13:30:41;18.90;49.40
65231;DHT22;51813;40.666;16.602;2024-01-16T13:33:07;18.70;48.70
65231;DHT22;51813;40.666;16.602;2024-01-16T13:35:35;18.90;49.40
65231;DHT22;51813;40.666;16.602;2024-01-16T13:38:01;18.90;49.40
65231;DHT22;51813;40.666;16.602;2024-01-16T13:40:29;19.00;49.20
65231;DHT22;51813;40.666;16.602;2024-01-16T13:42:55;19.20;49.10
65231;DHT22;51813;40.666;16.602;2024-01-16T13:45:21;19.30;48.80
65231;DHT22;51813;40.666;16.602;2024-01-16T13:47:46;19.40;48.50
65231;DHT22;51813;40.666;16.602;2024-01-16T13:50:12;19.40;48.50
65231;DHT22;51813;40.666;16.602;2024-01-16T13:52:38;19.40;48.50
65231;DHT22;51813;40.666;16.602;2024-01-16T13:55:06;19.50;48.30
65231;DHT22;51813;40.666;16.602;2024-01-16T13:57:32;19.50;48.40
65231;DHT22;51813;40.666;16.602;2024-01-16T14:00:01;19.50;48.40
65231;DHT22;51813;40.666;16.602;2024-01-16T14:02:26;19.60;48.50
65231;DHT22;51813;40.666;16.602;2024-01-16T14:04:52;19.60;48.40
65231;DHT22;51813;40.666;16.602;2024-01-16T14:07:18;19.70;48.30
65231;DHT22;51813;40.666;16.602;2024-01-16T14:09:43;19.70;48.20
65231;DHT22;51813;40.666;16.602;2024-01-16T14:12:10;19.70;48.30
65231;DHT22;51813;40.666;16.602;2024-01-16T14:14:37;19.70;48.40
65231;DHT22;51813;40.666;16.602;2024-01-16T14:17:05;19.50;48.90
65231;DHT22;51813;40.666;16.602;2024-01-16T14:19:30;19.60;48.60
65231;DHT22;51813;40.666;16.602;2024-01-16T14:21:56;19.70;48.70
65231;DHT22;51813;40.666;16.602;2024-01-16T14:24:22;19.70;48.60
65231;DHT22;51813;40.666;16.602;2024-01-16T14:26:47;19.70;48.50
65231;DHT22;51813;40.666;16.602;2024-01-16T14:29:13;19.70;48.50
65231;DHT22;51813;40.666;16.602;2024-01-16T14:31:39;19.70;48.50
65231;DHT22;51813;40.666;16.602;2024-01-16T14:34:10;19.70;48.50
65231;DHT22;51813;40.666;16.602;2024-01-16T14:36:39;19.70;48.70
65231;DHT22;51813;40.666;16.602;2024-01-16T14:39:05;19.70;48.70
65231;DHT22;51813;40.666;16.602;2024-01-16T14:41:31;19.70;49.00
65231;DHT22;51813;40.666;16.602;2024-01-16T14:43:57;19.70;48.80
65231;DHT22;51813;40.666;16.602;2024-01-16T14:46:23;19.70;48.80
65231;DHT22;51813;40.666;16.602;2024-01-16T14:48:49;19.70;49.00
65231;DHT22;51813;40.666;16.602;2024-01-16T14:51:14;19.70;49.00
65231;DHT22;51813;40.666;16.602;2024-01-16T14:53:40;19.60;50.00
65231;DHT22;51813;40.666;16.602;2024-01-16T14:56:06;19.50;49.50
65231;DHT22;51813;40.666;16.602;2024-01-16T14:58:31;19.30;49.80
65231;DHT22;51813;40.666;16.602;2024-01-16T15:00:57;19.30;50.10
65231;DHT22;51813;40.666;16.602;2024-01-16T15:03:23;19.10;50.40
65231;DHT22;51813;40.666;16.602;2024-01-16T15:05:50;19.00;50.80
65231;DHT22;51813;40.666;16.602;2024-01-16T15:08:17;18.90;51.10
65231;DHT22;51813;40.666;16.602;2024-01-16T15:10:44;18.80;51.40
65231;DHT22;51813;40.666;16.602;2024-01-16T15:13:09;18.60;51.70
65231;DHT22;51813;40.666;16.602;2024-01-16T15:15:35;18.60;52.00
65231;DHT22;51813;40.666;16.602;2024-01-16T15:18:02;18.50;52.30
65231;DHT22;51813;40.666;16.602;2024-01-16T15:20:28;18.40;52.50
65231;DHT22;51813;40.666;16.602;2024-01-16T15:22:54;18.40;52.80